Time;durP1;ratioP1;P1;durP2;ratioP2;P2;SDS_P1;SDS_P2;PMS_P1;PMS_P2;Temp;Humidity;BMP_temperature;BMP_pressure;BME280_temperature;BME280_humidity;BME280_pressure;Samples;Min_cycle;Max_cycle;Signal;HPM_P1;HPM_P2
2023/12/09 00:01:15;;;;;;;;;;;;;;;;;;5081791;28;20274;-64
2023/12/09 00:03:41;;;;;;;;;;;;;;;;;;5076301;28;19919;-63
2023/12/09 00:06:07;;;;;;;;;;;;;;;;;;5082302;28;19912;-64
2023/12/09 00:08:33;;;;;;;;;;;;;;;;;;5082050;28;19917;-63
2023/12/09 00:10:59;;;;;;;;;;;;;;;;;;5081678;28;19917;-64
2023/12/09 00:13:25;;;;;;;;;;;;;;;;;;5081706;28;19919;-64
2023/12/09 00:15:51;;;;;;;;;;;;;;;;;;5080234;28;20287;-63
2023/12/09 00:18:17;;;;;;;;;;;;;;;;;;5086169;28;19919;-64
2023/12/09 00:20:42;;;;;;;;;;;;;;;;;;5080143;28;20403;-64
2023/12/09 00:23:08;;;;;;;;;;;;;;;;;;5085424;28;19951;-64
2023/12/09 00:25:34;;;;;;;;;;;;;;;;;;5091687;28;20015;-63
2023/12/09 00:28:00;;;;;;;;;;;;;;;;;;5092958;28;19920;-65
2023/12/09 00:30:26;;;;;;;;;;;;;;;;;;5093160;28;19913;-64
2023/12/09 00:32:52;;;;;;;;;;;;;;;;;;5085627;28;19957;-64
2023/12/09 00:35:18;;;;;;;;;;;;;;;;;;5090755;28;19947;-64
2023/12/09 00:37:44;;;;;;;;;;;;;;;;;;5075130;28;19928;-63
2023/12/09 00:40:10;;;;;;;;;;;;;;;;;;5090153;28;19954;-64
2023/12/09 00:42:36;;;;;;;;;;;;;;;;;;5091424;28;20287;-63
2023/12/09 00:45:03;;;;;;;;;;;;;;;;;;5091712;28;19981;-64
2023/12/09 00:47:29;;;;;;;;;;;;;;;;;;5085604;28;19955;-64
2023/12/09 00:49:55;;;;;;;;;;;;;;;;;;5092845;28;19959;-64
2023/12/09 00:52:21;;;;;;;;;;;;;;;;;;5089353;28;20374;-63
2023/12/09 00:54:47;;;;;;;;;;;;;;;;;;5084597;28;19920;-64
2023/12/09 00:57:13;;;;;;;;;;;;;;;;;;5078174;28;20387;-64
2023/12/09 00:59:39;;;;;;;;;;;;;;;;;;5072885;28;20050;-64
2023/12/09 01:02:05;;;;;;;;;;;;;;;;;;5081924;28;20047;-63
2023/12/09 01:04:31;;;;;;;;;;;;;;;;;;5077242;28;19934;-63
2023/12/09 01:06:57;;;;;;;;;;;;;;;;;;5080990;28;19998;-64
2023/12/09 01:09:23;;;;;;;;;;;;;;;;;;5092802;28;19908;-64
2023/12/09 01:11:49;;;;;;;;;;;;;;;;;;5083449;28;19912;-62
2023/12/09 01:14:15;;;;;;;;;;;;;;;;;;5087272;28;19999;-64
2023/12/09 01:16:41;;;;;;;;;;;;;;;;;;5080365;28;19912;-64
2023/12/09 01:19:06;;;;;;;;;;;;;;;;;;5083348;28;19920;-63
2023/12/09 01:21:32;;;;;;;;;;;;;;;;;;5086964;28;19920;-64
2023/12/09 01:23:58;;;;;;;;;;;;;;;;;;5085293;28;19999;-64
2023/12/09 01:26:24;;;;;;;;;;;;;;;;;;5080385;28;19962;-62
2023/12/09 01:28:50;;;;;;;;;;;;;;;;;;5084164;28;19980;-62
2023/12/09 01:31:16;;;;;;;;;;;;;;;;;;5089104;28;20376;-62
2023/12/09 01:33:42;;;;;;;;;;;;;;;;;;5074323;28;19971;-63
2023/12/09 01:36:08;;;;;;;;;;;;;;;;;;5084154;28;19961;-63
2023/12/09 01:38:34;;;;;;;;;;;;;;;;;;5086031;28;20408;-62
2023/12/09 01:41:00;;;;;;;;;;;;;;;;;;5079263;28;19961;-62
2023/12/09 01:43:26;;;;;;;;;;;;;;;;;;5072759;28;19916;-63
2023/12/09 01:45:52;;;;;;;;;;;;;;;;;;5085664;28;19912;-65
2023/12/09 01:48:18;;;;;;;;;;;;;;;;;;5091524;28;20692;-65
2023/12/09 01:50:44;;;;;;;;;;;;;;;;;;5091521;28;19970;-65
2023/12/09 01:53:10;;;;;;;;;;;;;;;;;;5091973;28;20495;-64
2023/12/09 01:55:36;;;;;;;;;;;;;;;;;;5081401;28;19909;-65
2023/12/09 01:58:03;;;;;;;;;;;;;;;;;;5083780;28;19916;-64
2023/12/09 02:00:29;;;;;;;;;;;;;;;;;;5089984;28;19966;-64
2023/12/09 02:02:55;;;;;;;;;;;;;;;;;;5085655;28;20322;-64
2023/12/09 02:05:21;;;;;;;;;;;;;;;;;;5091700;28;19912;-65
2023/12/09 02:07:47;;;;;;;;;;;;;;;;;;5091446;28;19962;-65
2023/12/09 02:10:13;;;;;;;;;;;;;;;;;;5092027;28;19969;-64
2023/12/09 02:12:39;;;;;;;;;;;;;;;;;;5086184;28;19985;-64
2023/12/09 02:15:05;;;;;;;;;;;;;;;;;;5083374;28;19965;-65
2023/12/09 02:17:31;;;;;;;;;;;;;;;;;;5080326;28;19920;-65
2023/12/09 02:19:56;;;;;;;;;;;;;;;;;;5089334;28;20353;-65
2023/12/09 02:22:22;;;;;;;;;;;;;;;;;;5089805;28;19918;-64
2023/12/09 02:24:48;;;;;;;;;;;;;;;;;;5074653;28;19913;-65
2023/12/09 02:27:15;;;;;;;;;;;;;;;;;;5075844;28;19982;-64
2023/12/09 02:29:41;;;;;;;;;;;;;;;;;;5091289;28;20710;-65
2023/12/09 02:32:07;;;;;;;;;;;;;;;;;;5083973;28;20383;-65
2023/12/09 02:34:33;;;;;;;;;;;;;;;;;;5077470;28;19919;-59
2023/12/09 02:36:59;;;;;;;;;;;;;;;;;;5088881;28;20003;-59
2023/12/09 02:39:24;;;;;;;;;;;;;;;;;;5084669;28;19922;-60
2023/12/09 02:41:50;;;;;;;;;;;;;;;;;;5081930;28;19942;-59
2023/12/09 02:44:16;;;;;;;;;;;;;;;;;;5086512;28;19951;-60
2023/12/09 02:46:42;;;;;;;;;;;;;;;;;;5082335;28;20397;-60
2023/12/09 02:49:08;;;;;;;;;;;;;;;;;;5092047;28;19912;-59
2023/12/09 02:51:34;;;;;;;;;;;;;;;;;;5076794;28;19962;-59
2023/12/09 02:54:00;;;;;;;;;;;;;;;;;;5075797;28;19951;-59
2023/12/09 02:56:26;;;;;;;;;;;;;;;;;;5080480;28;20010;-64
2023/12/09 02:58:52;;;;;;;;;;;;;;;;;;5084898;28;19999;-66
2023/12/09 03:01:18;;;;;;;;;;;;;;;;;;5080386;28;20287;-64
2023/12/09 03:03:43;;;;;;;;;;;;;;;;;;5092378;28;19923;-65
2023/12/09 03:06:09;;;;;;;;;;;;;;;;;;5082869;28;19955;-64
2023/12/09 03:08:35;;;;;;;;;;;;;;;;;;5075224;28;19995;-64
2023/12/09 03:11:01;;;;;;;;;;;;;;;;;;5089834;28;19918;-64
2023/12/09 03:13:27;;;;;;;;;;;;;;;;;;5080876;28;19947;-64
2023/12/09 03:15:53;;;;;;;;;;;;;;;;;;5092382;28;19920;-65
2023/12/09 03:18:19;;;;;;;;;;;;;;;;;;5078099;28;19954;-65
2023/12/09 03:20:45;;;;;;;;;;;;;;;;;;5093681;28;19959;-64
2023/12/09 03:23:11;;;;;;;;;;;;;;;;;;5093383;28;19999;-64
2023/12/09 03:25:36;;;;;;;;;;;;;;;;;;5094223;28;19926;-64
2023/12/09 03:28:02;;;;;;;;;;;;;;;;;;5083170;28;20277;-64
2023/12/09 03:30:28;;;;;;;;;;;;;;;;;;5087534;28;19913;-65
2023/12/09 03:32:54;;;;;;;;;;;;;;;;;;5078372;28;19923;-65
2023/12/09 03:35:20;;;;;;;;;;;;;;;;;;5089743;28;20407;-65
2023/12/09 03:37:46;;;;;;;;;;;;;;;;;;5077854;28;19956;-65
2023/12/09 03:40:12;;;;;;;;;;;;;;;;;;5085287;28;19916;-64
2023/12/09 03:42:38;;;;;;;;;;;;;;;;;;5075795;28;20378;-64
2023/12/09 03:45:04;;;;;;;;;;;;;;;;;;5086679;28;20003;-64
2023/12/09 03:47:30;;;;;;;;;;;;;;;;;;5088033;28;20359;-63
2023/12/09 03:49:55;;;;;;;;;;;;;;;;;;5092318;28;19960;-64
2023/12/09 03:52:21;;;;;;;;;;;;;;;;;;5094331;28;20002;-64
2023/12/09 03:54:48;;;;;;;;;;;;;;;;;;5083353;28;19912;-63
2023/12/09 03:57:13;;;;;;;;;;;;;;;;;;5082850;28;20368;-64
2023/12/09 03:59:39;;;;;;;;;;;;;;;;;;5085793;28;20029;-63
2023/12/09 04:02:05;;;;;;;;;;;;;;;;;;5092476;28;19916;-63
2023/12/09 04:04:31;;;;;;;;;;;;;;;;;;5094042;28;19912;-63
2023/12/09 04:06:57;;;;;;;;;;;;;;;;;;5089346;28;19962;-62
2023/12/09 04:09:24;;;;;;;;;;;;;;;;;;5080121;28;19995;-62
2023/12/09 04:11:50;;;;;;;;;;;;;;;;;;5088847;28;19964;-62
2023/12/09 04:14:15;;;;;;;;;;;;;;;;;;5083589;28;19920;-62
2023/12/09 04:16:42;;;;;;;;;;;;;;;;;;5079809;28;20307;-62
2023/12/09 04:19:08;;;;;;;;;;;;;;;;;;5073943;28;19919;-62
2023/12/09 04:21:34;;;;;;;;;;;;;;;;;;5084666;28;20011;-62
2023/12/09 04:23:59;;;;;;;;;;;;;;;;;;5092545;28;19914;-62
2023/12/09 04:26:25;;;;;;;;;;;;;;;;;;5084739;28;19989;-62
2023/12/09 04:28:51;;;;;;;;;;;;;;;;;;5083538;28;19952;-62
2023/12/09 04:31:17;;;;;;;;;;;;;;;;;;5087179;28;19935;-63
2023/12/09 04:33:46;;;;;;;;;;;;;;;;;;5074192;28;19952;-62
2023/12/09 04:36:13;;;;;;;;;;;;;;;;;;5086534;28;20423;-62
2023/12/09 04:38:39;;;;;;;;;;;;;;;;;;5080483;28;19913;-62
2023/12/09 04:41:05;;;;;;;;;;;;;;;;;;5079890;28;19966;-62
2023/12/09 04:43:31;;;;;;;;;;;;;;;;;;5088962;28;19948;-62
2023/12/09 04:45:57;;;;;;;;;;;;;;;;;;5091442;28;19959;-62
2023/12/09 04:48:23;;;;;;;;;;;;;;;;;;5083326;28;20438;-63
2023/12/09 04:50:49;;;;;;;;;;;;;;;;;;5074386;28;20010;-63
2023/12/09 04:53:14;;;;;;;;;;;;;;;;;;5077507;28;19922;-63
2023/12/09 04:55:40;;;;;;;;;;;;;;;;;;5092813;28;19914;-64
2023/12/09 04:58:06;;;;;;;;;;;;;;;;;;5087038;28;20010;-64
2023/12/09 05:00:32;;;;;;;;;;;;;;;;;;5082918;28;19966;-64
2023/12/09 05:02:58;;;;;;;;;;;;;;;;;;5075774;28;19939;-64
2023/12/09 05:05:24;;;;;;;;;;;;;;;;;;5085056;28;20475;-64
2023/12/09 05:07:50;;;;;;;;;;;;;;;;;;5084506;28;20349;-64
2023/12/09 05:10:16;;;;;;;;;;;;;;;;;;5089866;28;19923;-64
2023/12/09 05:12:42;;;;;;;;;;;;;;;;;;5086676;28;19908;-64
2023/12/09 05:15:08;;;;;;;;;;;;;;;;;;5080661;28;20454;-64
2023/12/09 05:17:34;;;;;;;;;;;;;;;;;;5075804;28;20296;-63
2023/12/09 05:20:00;;;;;;;;;;;;;;;;;;5087135;28;19951;-63
2023/12/09 05:22:26;;;;;;;;;;;;;;;;;;5087521;28;19976;-64
2023/12/09 05:24:52;;;;;;;;;;;;;;;;;;5090048;28;19999;-63
2023/12/09 05:27:18;;;;;;;;;;;;;;;;;;5085013;28;20280;-63
2023/12/09 05:29:43;;;;;;;;;;;;;;;;;;5077257;28;19951;-64
2023/12/09 05:32:09;;;;;;;;;;;;;;;;;;5083939;28;19912;-63
2023/12/09 05:34:35;;;;;;;;;;;;;;;;;;5089366;28;19916;-63
2023/12/09 05:37:01;;;;;;;;;;;;;;;;;;5081793;28;20386;-64
2023/12/09 05:39:27;;;;;;;;;;;;;;;;;;5087666;28;20011;-64
2023/12/09 05:41:53;;;;;;;;;;;;;;;;;;5086700;28;20318;-64
2023/12/09 05:44:19;;;;;;;;;;;;;;;;;;5078414;28;19965;-63
2023/12/09 05:46:45;;;;;;;;;;;;;;;;;;5092187;28;19916;-63
2023/12/09 05:49:11;;;;;;;;;;;;;;;;;;5085864;28;20010;-63
2023/12/09 05:51:36;;;;;;;;;;;;;;;;;;5089418;28;19959;-63
2023/12/09 05:54:02;;;;;;;;;;;;;;;;;;5074903;28;19912;-63
2023/12/09 05:56:28;;;;;;;;;;;;;;;;;;5092462;28;19912;-63
2023/12/09 05:58:54;;;;;;;;;;;;;;;;;;5090470;28;19973;-63
2023/12/09 06:01:20;;;;;;;;;;;;;;;;;;5093814;28;19999;-63
2023/12/09 06:03:46;;;;;;;;;;;;;;;;;;5084640;28;19918;-63
2023/12/09 06:06:12;;;;;;;;;;;;;;;;;;5083012;28;20368;-59
2023/12/09 06:08:38;;;;;;;;;;;;;;;;;;5094748;28;20006;-60
2023/12/09 06:11:04;;;;;;;;;;;;;;;;;;5085504;28;19948;-59
2023/12/09 06:13:30;;;;;;;;;;;;;;;;;;5078485;28;19966;-61
2023/12/09 06:15:56;;;;;;;;;;;;;;;;;;5090539;28;19958;-59
2023/12/09 06:18:22;;;;;;;;;;;;;;;;;;5093961;28;20324;-59
2023/12/09 06:20:47;;;;;;;;;;;;;;;;;;5092449;28;19920;-59
2023/12/09 06:23:13;;;;;;;;;;;;;;;;;;5091405;28;19918;-59
2023/12/09 06:25:39;;;;;;;;;;;;;;;;;;5095037;28;20018;-62
2023/12/09 06:28:05;;;;;;;;;;;;;;;;;;5077522;28;19917;-62
2023/12/09 06:30:33;;;;;;;;;;;;;;;;;;5074887;28;20004;-63
2023/12/09 06:32:59;;;;;;;;;;;;;;;;;;5086153;28;20291;-63
2023/12/09 06:35:24;;;;;;;;;;;;;;;;;;5087551;28;19946;-62
2023/12/09 06:37:51;;;;;;;;;;;;;;;;;;5095017;28;19928;-62
2023/12/09 06:40:16;;;;;;;;;;;;;;;;;;5094592;28;19916;-62
2023/12/09 06:42:42;;;;;;;;;;;;;;;;;;5083526;28;20003;-62
2023/12/09 06:45:08;;;;;;;;;;;;;;;;;;5087114;28;19919;-63
2023/12/09 06:47:34;;;;;;;;;;;;;;;;;;5093842;28;19941;-63
2023/12/09 06:50:00;;;;;;;;;;;;;;;;;;5084715;28;19923;-63
2023/12/09 06:52:26;;;;;;;;;;;;;;;;;;5089172;28;19940;-63
2023/12/09 06:54:52;;;;;;;;;;;;;;;;;;5083049;28;19916;-63
2023/12/09 06:57:18;;;;;;;;;;;;;;;;;;5088638;28;19916;-63
2023/12/09 06:59:44;;;;;;;;;;;;;;;;;;5087421;28;19929;-63
2023/12/09 07:02:10;;;;;;;;;;;;;;;;;;5077842;28;19975;-63
2023/12/09 07:04:36;;;;;;;;;;;;;;;;;;5089797;28;19956;-63
2023/12/09 07:07:02;;;;;;;;;;;;;;;;;;5090917;28;19913;-63
2023/12/09 07:09:28;;;;;;;;;;;;;;;;;;5093303;28;19916;-63
2023/12/09 07:11:54;;;;;;;;;;;;;;;;;;5083095;28;19943;-63
2023/12/09 07:14:20;;;;;;;;;;;;;;;;;;5082496;28;19982;-60
2023/12/09 07:16:46;;;;;;;;;;;;;;;;;;5080169;28;20371;-59
2023/12/09 07:19:12;;;;;;;;;;;;;;;;;;5085034;28;20376;-59
2023/12/09 07:21:39;;;;;;;;;;;;;;;;;;5089419;28;19968;-60
2023/12/09 07:24:06;;;;;;;;;;;;;;;;;;5082860;28;19923;-59
2023/12/09 07:26:32;;;;;;;;;;;;;;;;;;5082232;28;20350;-59
2023/12/09 07:28:57;;;;;;;;;;;;;;;;;;5086498;28;20022;-59
2023/12/09 07:31:23;;;;;;;;;;;;;;;;;;5086858;28;19947;-59
2023/12/09 07:33:49;;;;;;;;;;;;;;;;;;5083454;28;19923;-59
2023/12/09 07:36:15;;;;;;;;;;;;;;;;;;5086831;28;20034;-63
2023/12/09 07:38:41;;;;;;;;;;;;;;;;;;5084479;28;19916;-63
2023/12/09 07:41:07;;;;;;;;;;;;;;;;;;5090475;28;19916;-63
2023/12/09 07:43:33;;;;;;;;;;;;;;;;;;5091982;28;19919;-63
2023/12/09 07:45:59;;;;;;;;;;;;;;;;;;5087062;28;20351;-63
2023/12/09 07:48:25;;;;;;;;;;;;;;;;;;5080534;28;19989;-63
2023/12/09 07:50:51;;;;;;;;;;;;;;;;;;5090427;28;19950;-63
2023/12/09 07:53:17;;;;;;;;;;;;;;;;;;5087608;28;19920;-63
2023/12/09 07:55:42;;;;;;;;;;;;;;;;;;5087275;28;19943;-63
2023/12/09 07:58:08;;;;;;;;;;;;;;;;;;5074955;28;19961;-63
2023/12/09 08:00:35;;;;;;;;;;;;;;;;;;5085333;28;20035;-63
2023/12/09 08:03:01;;;;;;;;;;;;;;;;;;5077326;28;19920;-63
2023/12/09 08:05:26;;;;;;;;;;;;;;;;;;5090966;28;20018;-63
2023/12/09 08:07:52;;;;;;;;;;;;;;;;;;5087287;28;19965;-63
2023/12/09 08:10:19;;;;;;;;;;;;;;;;;;5080948;28;19916;-63
2023/12/09 08:12:45;;;;;;;;;;;;;;;;;;5086842;28;19998;-62
2023/12/09 08:15:11;;;;;;;;;;;;;;;;;;5083651;28;20015;-63
2023/12/09 08:17:37;;;;;;;;;;;;;;;;;;5088211;28;19938;-62
2023/12/09 08:20:06;;;;;;;;;;;;;;;;;;5081075;28;19916;-63
2023/12/09 08:22:34;;;;;;;;;;;;;;;;;;5087265;28;19987;-63
2023/12/09 08:25:00;;;;;;;;;;;;;;;;;;5079250;28;20321;-65
2023/12/09 08:27:26;;;;;;;;;;;;;;;;;;5092761;28;19920;-64
2023/12/09 08:29:52;;;;;;;;;;;;;;;;;;5079435;28;19977;-64
2023/12/09 08:32:18;;;;;;;;;;;;;;;;;;5080787;28;19995;-64
2023/12/09 08:34:43;;;;;;;;;;;;;;;;;;5080088;28;19918;-64
2023/12/09 08:37:10;;;;;;;;;;;;;;;;;;5081855;28;19954;-64
2023/12/09 08:39:36;;;;;;;;;;;;;;;;;;5078544;28;20002;-64
2023/12/09 08:42:01;;;;;;;;;;;;;;;;;;5078945;28;19920;-64
2023/12/09 08:44:27;;;;;;;;;;;;;;;;;;5089107;28;19912;-62
2023/12/09 08:46:53;;;;;;;;;;;;;;;;;;5085133;28;20376;-62
2023/12/09 08:49:19;;;;;;;;;;;;;;;;;;5088206;28;19920;-62
2023/12/09 08:51:45;;;;;;;;;;;;;;;;;;5089318;28;19946;-62
2023/12/09 08:54:11;;;;;;;;;;;;;;;;;;5084129;28;19943;-62
2023/12/09 08:56:37;;;;;;;;;;;;;;;;;;5081087;28;19951;-63
2023/12/09 08:59:07;;;;;;;;;;;;;;;;;;5088659;28;19998;-62
2023/12/09 09:01:33;;;;;;;;;;;;;;;;;;5089120;28;19963;-62
2023/12/09 09:03:59;;;;;;;;;;;;;;;;;;5090439;28;20288;-63
2023/12/09 09:06:25;;;;;;;;;;;;;;;;;;5092257;28;20003;-63
2023/12/09 09:08:51;;;;;;;;;;;;;;;;;;5079805;28;20013;-62
2023/12/09 09:11:17;;;;;;;;;;;;;;;;;;5089163;28;19913;-62
2023/12/09 09:13:42;;;;;;;;;;;;;;;;;;5090145;28;19912;-62
2023/12/09 09:16:08;;;;;;;;;;;;;;;;;;5086786;28;20018;-62
2023/12/09 09:18:34;;;;;;;;;;;;;;;;;;5089426;28;19919;-62
2023/12/09 09:21:00;;;;;;;;;;;;;;;;;;5080290;28;20376;-62
2023/12/09 09:23:26;;;;;;;;;;;;;;;;;;5082133;28;19956;-63
2023/12/09 09:25:52;;;;;;;;;;;;;;;;;;5088759;28;20292;-62
2023/12/09 09:28:18;;;;;;;;;;;;;;;;;;5084786;28;20332;-62
2023/12/09 09:30:44;;;;;;;;;;;;;;;;;;5083527;28;19912;-62
2023/12/09 09:33:10;;;;;;;;;;;;;;;;;;5081675;28;19973;-63
2023/12/09 09:35:36;;;;;;;;;;;;;;;;;;5090995;28;19928;-63
2023/12/09 09:38:01;;;;;;;;;;;;;;;;;;5091287;28;20023;-63
2023/12/09 09:40:27;;;;;;;;;;;;;;;;;;5087432;28;19916;-63
2023/12/09 09:42:53;;;;;;;;;;;;;;;;;;5083980;28;19970;-62
2023/12/09 09:45:19;;;;;;;;;;;;;;;;;;5080486;28;19908;-63
2023/12/09 09:47:45;;;;;;;;;;;;;;;;;;5091349;28;19919;-62
2023/12/09 09:50:11;;;;;;;;;;;;;;;;;;5091112;28;19908;-63
2023/12/09 09:52:37;;;;;;;;;;;;;;;;;;5080571;28;20313;-63
2023/12/09 09:55:03;;;;;;;;;;;;;;;;;;5077240;28;20372;-62
2023/12/09 09:57:29;;;;;;;;;;;;;;;;;;5080052;28;19922;-62
2023/12/09 09:59:56;;;;;;;;;;;;;;;;;;5086102;28;19927;-62
2023/12/09 10:02:22;;;;;;;;;;;;;;;;;;5084221;28;20019;-63
2023/12/09 10:04:47;;;;;;;;;;;;;;;;;;5091137;28;19913;-63
2023/12/09 10:07:14;;;;;;;;;;;;;;;;;;5079953;28;20046;-63
2023/12/09 10:09:40;;;;;;;;;;;;;;;;;;5084230;28;20026;-63
2023/12/09 10:12:06;;;;;;;;;;;;;;;;;;5088750;28;20050;-62
2023/12/09 10:14:32;;;;;;;;;;;;;;;;;;5085066;28;19920;-63
2023/12/09 10:16:58;;;;;;;;;;;;;;;;;;5090772;28;19908;-63
2023/12/09 10:19:24;;;;;;;;;;;;;;;;;;5082223;28;19916;-63
2023/12/09 10:21:50;;;;;;;;;;;;;;;;;;5076365;28;20018;-63
2023/12/09 10:24:16;;;;;;;;;;;;;;;;;;5076368;28;20392;-63
2023/12/09 10:26:41;;;;;;;;;;;;;;;;;;5088301;28;19928;-63
2023/12/09 10:29:07;;;;;;;;;;;;;;;;;;5082271;28;20381;-63
2023/12/09 10:31:35;;;;;;;;;;;;;;;;;;5080509;28;19969;-63
2023/12/09 10:34:01;;;;;;;;;;;;;;;;;;5079396;28;19971;-63
2023/12/09 10:36:27;;;;;;;;;;;;;;;;;;5083039;28;20001;-63
2023/12/09 10:38:53;;;;;;;;;;;;;;;;;;5088432;28;19943;-63
2023/12/09 10:41:19;;;;;;;;;;;;;;;;;;5078066;28;20287;-63
2023/12/09 10:43:46;;;;;;;;;;;;;;;;;;5088000;28;19954;-63
2023/12/09 10:46:13;;;;;;;;;;;;;;;;;;5090771;28;20260;-59
2023/12/09 10:48:39;;;;;;;;;;;;;;;;;;5083198;28;19959;-61
2023/12/09 10:51:05;;;;;;;;;;;;;;;;;;5078085;28;19963;-60
2023/12/09 10:53:31;;;;;;;;;;;;;;;;;;5086232;28;20007;-61
2023/12/09 10:55:57;;;;;;;;;;;;;;;;;;5093444;28;19923;-61
2023/12/09 10:58:23;;;;;;;;;;;;;;;;;;5085024;28;19956;-60
2023/12/09 11:00:48;;;;;;;;;;;;;;;;;;5079947;28;19959;-59
2023/12/09 11:03:14;;;;;;;;;;;;;;;;;;5084308;28;20538;-59
2023/12/09 11:05:40;;;;;;;;;;;;;;;;;;5085929;28;19958;-65
2023/12/09 11:08:06;;;;;;;;;;;;;;;;;;5079311;28;19909;-65
2023/12/09 11:10:32;;;;;;;;;;;;;;;;;;5087295;28;19920;-65
2023/12/09 11:12:58;;;;;;;;;;;;;;;;;;5089164;28;19957;-66
2023/12/09 11:15:30;;;;;;;;;;;;;;;;;;5084988;28;20376;-66
2023/12/09 11:17:56;;;;;;;;;;;;;;;;;;5078729;28;20430;-65
2023/12/09 11:20:22;;;;;;;;;;;;;;;;;;5076733;28;19916;-64
2023/12/09 11:22:48;;;;;;;;;;;;;;;;;;5086511;28;19954;-66
2023/12/09 11:25:14;;;;;;;;;;;;;;;;;;5093599;28;19951;-64
2023/12/09 11:27:40;;;;;;;;;;;;;;;;;;5092000;28;19931;-64
2023/12/09 11:30:06;;;;;;;;;;;;;;;;;;5079365;28;19912;-65
2023/12/09 11:32:32;;;;;;;;;;;;;;;;;;5078852;28;20426;-64
2023/12/09 11:34:58;;;;;;;;;;;;;;;;;;5092227;28;20372;-64
2023/12/09 11:37:24;;;;;;;;;;;;;;;;;;5088533;28;19940;-64
2023/12/09 11:39:50;;;;;;;;;;;;;;;;;;5092777;28;19912;-65
2023/12/09 11:42:16;;;;;;;;;;;;;;;;;;5088738;28;19990;-65
2023/12/09 11:44:42;;;;;;;;;;;;;;;;;;5091123;28;19920;-64
2023/12/09 11:47:08;;;;;;;;;;;;;;;;;;5087170;28;20609;-64
2023/12/09 11:49:33;;;;;;;;;;;;;;;;;;5086802;28;19916;-64
2023/12/09 11:51:59;;;;;;;;;;;;;;;;;;5088136;28;19966;-64
2023/12/09 11:54:25;;;;;;;;;;;;;;;;;;5078721;28;19920;-64
2023/12/09 11:56:51;;;;;;;;;;;;;;;;;;5087583;28;19922;-64
2023/12/09 11:59:17;;;;;;;;;;;;;;;;;;5081251;28;20383;-64
2023/12/09 12:01:43;;;;;;;;;;;;;;;;;;5092481;28;19995;-64
2023/12/09 12:04:09;;;;;;;;;;;;;;;;;;5079206;28;19955;-64
2023/12/09 12:06:35;;;;;;;;;;;;;;;;;;5083623;28;19931;-64
2023/12/09 12:09:03;;;;;;;;;;;;;;;;;;5089471;28;19924;-64
2023/12/09 12:11:28;;;;;;;;;;;;;;;;;;5088762;28;19974;-64
2023/12/09 12:13:54;;;;;;;;;;;;;;;;;;5086893;28;19916;-64
2023/12/09 12:16:20;;;;;;;;;;;;;;;;;;5087258;28;19954;-62
2023/12/09 12:18:47;;;;;;;;;;;;;;;;;;5084935;28;19963;-62
2023/12/09 12:21:12;;;;;;;;;;;;;;;;;;5086799;28;19924;-62
2023/12/09 12:23:39;;;;;;;;;;;;;;;;;;5074215;28;20285;-62
2023/12/09 12:26:05;;;;;;;;;;;;;;;;;;5085497;28;19920;-63
2023/12/09 12:28:31;;;;;;;;;;;;;;;;;;5075679;28;19995;-62
2023/12/09 12:30:59;;;;;;;;;;;;;;;;;;5088558;28;19916;-63
2023/12/09 12:33:25;;;;;;;;;;;;;;;;;;5080873;28;19916;-62
2023/12/09 12:35:51;;;;;;;;;;;;;;;;;;5078130;28;19920;-62
2023/12/09 12:38:17;;;;;;;;;;;;;;;;;;5083043;28;19948;-62
2023/12/09 12:40:43;;;;;;;;;;;;;;;;;;5079431;28;19923;-62
2023/12/09 12:43:09;;;;;;;;;;;;;;;;;;5080131;28;19951;-62
2023/12/09 12:45:35;;;;;;;;;;;;;;;;;;5091763;28;19916;-62
2023/12/09 12:48:01;;;;;;;;;;;;;;;;;;5091712;28;19986;-62
2023/12/09 12:50:26;;;;;;;;;;;;;;;;;;5088692;28;19912;-62
2023/12/09 12:52:52;;;;;;;;;;;;;;;;;;5081325;28;19916;-62
2023/12/09 12:55:18;;;;;;;;;;;;;;;;;;5078966;28;19909;-62
2023/12/09 12:57:44;;;;;;;;;;;;;;;;;;5089763;28;19958;-62
2023/12/09 13:00:13;;;;;;;;;;;;;;;;;;5082712;28;20433;-62
2023/12/09 13:02:39;;;;;;;;;;;;;;;;;;5092315;28;19916;-62
2023/12/09 13:05:06;;;;;;;;;;;;;;;;;;5087255;28;20018;-61
2023/12/09 13:07:32;;;;;;;;;;;;;;;;;;5077617;28;20319;-59
2023/12/09 13:09:58;;;;;;;;;;;;;;;;;;5085041;28;19963;-60
2023/12/09 13:12:24;;;;;;;;;;;;;;;;;;5079338;28;19913;-59
2023/12/09 13:14:50;;;;;;;;;;;;;;;;;;5077923;28;20057;-59
2023/12/09 13:17:15;;;;;;;;;;;;;;;;;;5085498;28;20371;-59
2023/12/09 13:19:41;;;;;;;;;;;;;;;;;;5079055;28;20035;-59
2023/12/09 13:22:07;;;;;;;;;;;;;;;;;;5078818;28;19916;-59
2023/12/09 13:24:33;;;;;;;;;;;;;;;;;;5087707;28;19923;-64
2023/12/09 13:26:59;;;;;;;;;;;;;;;;;;5082705;28;20003;-63
2023/12/09 13:29:25;;;;;;;;;;;;;;;;;;5085657;28;19922;-63
2023/12/09 13:31:51;;;;;;;;;;;;;;;;;;5091756;28;19915;-64
2023/12/09 13:34:17;;;;;;;;;;;;;;;;;;5089379;28;20467;-63
2023/12/09 13:36:44;;;;;;;;;;;;;;;;;;5091388;28;19920;-64
2023/12/09 13:39:14;;;;;;;;;;;;;;;;;;5089033;28;19912;-63
2023/12/09 13:41:40;;;;;;;;;;;;;;;;;;5088649;28;20394;-63
2023/12/09 13:44:05;;;;;;;;;;;;;;;;;;5082879;28;19951;-63
2023/12/09 13:46:32;;;;;;;;;;;;;;;;;;5084227;28;20006;-63
2023/12/09 13:48:58;;;;;;;;;;;;;;;;;;5079207;28;19921;-63
2023/12/09 13:51:23;;;;;;;;;;;;;;;;;;5071273;28;19912;-63
2023/12/09 13:53:49;;;;;;;;;;;;;;;;;;5077086;28;19912;-63
2023/12/09 13:56:15;;;;;;;;;;;;;;;;;;5082475;28;20040;-63
2023/12/09 13:58:41;;;;;;;;;;;;;;;;;;5078107;28;20276;-63
2023/12/09 14:01:07;;;;;;;;;;;;;;;;;;5081716;28;19992;-63
2023/12/09 14:03:33;;;;;;;;;;;;;;;;;;5077030;28;19974;-63
2023/12/09 14:05:59;;;;;;;;;;;;;;;;;;5090953;28;20337;-63
2023/12/09 14:08:25;;;;;;;;;;;;;;;;;;5080263;28;19974;-63
2023/12/09 14:10:51;;;;;;;;;;;;;;;;;;5089193;28;19912;-63
2023/12/09 14:13:18;;;;;;;;;;;;;;;;;;5089715;28;19952;-63
2023/12/09 14:15:44;;;;;;;;;;;;;;;;;;5083353;28;19920;-59
2023/12/09 14:18:09;;;;;;;;;;;;;;;;;;5086423;28;19957;-60
2023/12/09 14:20:35;;;;;;;;;;;;;;;;;;5093261;28;20237;-60
2023/12/09 14:23:02;;;;;;;;;;;;;;;;;;5088396;28;19957;-59
2023/12/09 14:25:27;;;;;;;;;;;;;;;;;;5088124;28;19912;-59
2023/12/09 14:27:54;;;;;;;;;;;;;;;;;;5094808;28;20296;-60
2023/12/09 14:30:20;;;;;;;;;;;;;;;;;;5081858;28;20018;-59
2023/12/09 14:32:46;;;;;;;;;;;;;;;;;;5083179;28;19913;-59
2023/12/09 14:35:12;;;;;;;;;;;;;;;;;;5086812;28;19918;-62
2023/12/09 14:37:38;;;;;;;;;;;;;;;;;;5089052;28;20271;-62
2023/12/09 14:40:05;;;;;;;;;;;;;;;;;;5092952;28;20022;-62
2023/12/09 14:42:31;;;;;;;;;;;;;;;;;;5089230;28;20394;-62
2023/12/09 14:44:57;;;;;;;;;;;;;;;;;;5084029;28;19998;-62
2023/12/09 14:47:23;;;;;;;;;;;;;;;;;;5086951;28;20002;-62
2023/12/09 14:49:49;;;;;;;;;;;;;;;;;;5084108;28;19977;-65
2023/12/09 14:52:15;;;;;;;;;;;;;;;;;;5074841;28;19993;-62
2023/12/09 14:54:42;;;;;;;;;;;;;;;;;;5087056;28;19916;-62
2023/12/09 14:57:08;;;;;;;;;;;;;;;;;;5085330;28;19924;-62
2023/12/09 14:59:34;;;;;;;;;;;;;;;;;;5086124;28;20388;-61
2023/12/09 15:02:00;;;;;;;;;;;;;;;;;;5084141;28;20011;-65
2023/12/09 15:04:26;;;;;;;;;;;;;;;;;;5094884;28;20014;-61
2023/12/09 15:06:53;;;;;;;;;;;;;;;;;;5081168;28;19959;-62
2023/12/09 15:09:19;;;;;;;;;;;;;;;;;;5083581;28;20333;-62
2023/12/09 15:11:45;;;;;;;;;;;;;;;;;;5084267;28;19920;-62
2023/12/09 15:14:11;;;;;;;;;;;;;;;;;;5086620;28;20414;-62
2023/12/09 15:16:38;;;;;;;;;;;;;;;;;;5093269;28;19913;-63
2023/12/09 15:19:04;;;;;;;;;;;;;;;;;;5090306;28;19966;-63
2023/12/09 15:21:30;;;;;;;;;;;;;;;;;;5087066;28;19977;-63
2023/12/09 15:23:55;;;;;;;;;;;;;;;;;;5089885;28;19956;-62
2023/12/09 15:26:21;;;;;;;;;;;;;;;;;;5082626;28;20015;-64
2023/12/09 15:28:47;;;;;;;;;;;;;;;;;;5085021;28;19960;-64
2023/12/09 15:31:15;;;;;;;;;;;;;;;;;;5084606;28;21555;-64
2023/12/09 15:33:41;;;;;;;;;;;;;;;;;;5089208;28;19951;-64
2023/12/09 15:36:07;;;;;;;;;;;;;;;;;;5078107;28;19999;-64
2023/12/09 15:38:34;;;;;;;;;;;;;;;;;;5088542;28;19916;-64
2023/12/09 15:41:00;;;;;;;;;;;;;;;;;;5090596;28;19916;-64
2023/12/09 15:43:26;;;;;;;;;;;;;;;;;;5091788;28;19951;-64
2023/12/09 15:45:52;;;;;;;;;;;;;;;;;;5082274;28;20434;-64
2023/12/09 15:48:18;;;;;;;;;;;;;;;;;;5088110;28;20011;-64
2023/12/09 15:50:43;;;;;;;;;;;;;;;;;;5073869;28;19916;-64
2023/12/09 15:53:09;;;;;;;;;;;;;;;;;;5087041;28;20343;-65
2023/12/09 15:55:35;;;;;;;;;;;;;;;;;;5094581;28;19912;-64
2023/12/09 15:58:01;;;;;;;;;;;;;;;;;;5087961;28;20391;-64
2023/12/09 16:00:28;;;;;;;;;;;;;;;;;;5083513;28;19968;-65
2023/12/09 16:02:55;;;;;;;;;;;;;;;;;;5091298;28;20362;-64
2023/12/09 16:05:21;;;;;;;;;;;;;;;;;;5093010;28;20325;-64
2023/12/09 16:07:47;;;;;;;;;;;;;;;;;;5091840;28;19950;-64
2023/12/09 16:10:13;;;;;;;;;;;;;;;;;;5075979;28;19938;-64
2023/12/09 16:12:39;;;;;;;;;;;;;;;;;;5080889;28;20394;-64
2023/12/09 16:15:05;;;;;;;;;;;;;;;;;;5082836;28;19917;-64
2023/12/09 16:17:31;;;;;;;;;;;;;;;;;;5082448;28;20287;-64
2023/12/09 16:19:57;;;;;;;;;;;;;;;;;;5079692;28;20374;-64
2023/12/09 16:22:23;;;;;;;;;;;;;;;;;;5090463;28;19916;-65
2023/12/09 16:24:49;;;;;;;;;;;;;;;;;;5093592;28;19913;-64
2023/12/09 16:27:16;;;;;;;;;;;;;;;;;;5091811;28;19956;-64
2023/12/09 16:29:41;;;;;;;;;;;;;;;;;;5088048;28;19977;-64
2023/12/09 16:32:07;;;;;;;;;;;;;;;;;;5088842;28;19959;-65
2023/12/09 16:34:33;;;;;;;;;;;;;;;;;;5083250;28;19917;-59
2023/12/09 16:36:59;;;;;;;;;;;;;;;;;;5091154;28;20279;-59